Time;durP1;ratioP1;P1;durP2;ratioP2;P2;SDS_P1;SDS_P2;PMS_P1;PMS_P2;Temp;Humidity;BMP_temperature;BMP_pressure;BME280_temperature;BME280_humidity;BME280_pressure;Samples;Min_cycle;Max_cycle;Signal;HPM_P1;HPM_P2
2024/04/07 00:00:19;;;;;;;13.15;4.43;;;14.20;99.90;;;;;;5042551;28;20123;-72
2024/04/07 00:02:46;;;;;;;12.90;4.15;;;14.30;99.90;;;;;;5042891;28;20025;-72
2024/04/07 00:05:12;;;;;;;7.07;3.20;;;14.40;99.90;;;;;;5043163;28;21338;-72
2024/04/07 00:07:38;;;;;;;8.02;3.67;;;14.30;99.90;;;;;;5042824;28;20625;-72
2024/04/07 00:10:04;;;;;;;8.30;3.30;;;14.30;99.90;;;;;;5042336;28;20113;-72
2024/04/07 00:12:29;;;;;;;12.38;4.43;;;14.30;99.90;;;;;;5042088;28;20487;-72
2024/04/07 00:14:55;;;;;;;11.68;4.57;;;14.20;99.90;;;;;;5041605;28;20040;-72
2024/04/07 00:17:21;;;;;;;11.27;4.50;;;14.30;99.90;;;;;;5042734;28;20029;-72
2024/04/07 00:19:47;;;;;;;6.03;2.88;;;14.30;99.90;;;;;;5042174;28;20044;-72
2024/04/07 00:22:12;;;;;;;8.68;3.78;;;14.20;99.90;;;;;;5042203;28;20021;-72
2024/04/07 00:24:38;;;;;;;7.97;3.75;;;14.30;99.90;;;;;;5042157;28;20040;-72
2024/04/07 00:27:04;;;;;;;6.95;3.55;;;14.40;99.90;;;;;;5042397;28;20048;-72
2024/04/07 00:29:30;;;;;;;8.90;3.88;;;14.40;99.90;;;;;;5042022;28;20028;-72
2024/04/07 00:31:56;;;;;;;11.52;4.32;;;14.40;99.90;;;;;;5042003;28;20045;-72
2024/04/07 00:34:22;;;;;;;14.45;3.40;;;14.40;99.90;;;;;;5041808;28;20036;-72
2024/04/07 00:36:47;;;;;;;7.63;3.55;;;14.50;99.90;;;;;;5042043;28;20028;-72
2024/04/07 00:39:13;;;;;;;8.60;3.10;;;14.30;99.90;;;;;;5041997;28;20037;-72
2024/04/07 00:41:39;;;;;;;9.15;3.42;;;14.20;99.90;;;;;;5041724;28;20406;-72
2024/04/07 00:44:05;;;;;;;9.82;3.88;;;14.30;99.90;;;;;;5041609;28;20032;-72
2024/04/07 00:46:31;;;;;;;8.60;3.50;;;14.10;99.90;;;;;;5041613;28;20029;-72
2024/04/07 00:48:57;;;;;;;9.40;3.72;;;14.30;99.90;;;;;;5041889;28;20453;-72
2024/04/07 00:51:23;;;;;;;8.27;4.47;;;14.40;99.90;;;;;;5041726;28;20555;-72
2024/04/07 00:53:49;;;;;;;15.55;4.00;;;14.30;99.90;;;;;;5041850;28;20032;-72
2024/04/07 00:56:15;;;;;;;9.20;3.95;;;14.20;99.90;;;;;;5041969;28;20037;-72
2024/04/07 00:58:42;;;;;;;14.65;4.68;;;14.00;99.90;;;;;;5041779;28;20035;-72
2024/04/07 01:01:08;;;;;;;9.18;3.60;;;14.00;99.90;;;;;;5041388;28;20068;-72
2024/04/07 01:03:34;;;;;;;11.35;4.85;;;14.10;99.90;;;;;;5041435;28;20428;-72
2024/04/07 01:05:59;;;;;;;11.65;4.63;;;14.10;99.90;;;;;;5041551;28;20037;-72
2024/04/07 01:08:25;;;;;;;10.38;4.20;;;13.90;99.90;;;;;;5041767;28;20028;-72
2024/04/07 01:10:51;;;;;;;16.52;4.45;;;14.00;99.90;;;;;;5041599;28;20043;-72
2024/04/07 01:13:18;;;;;;;7.90;4.15;;;13.70;99.90;;;;;;5041281;28;20525;-72
2024/04/07 01:15:44;;;;;;;9.95;3.85;;;13.90;99.90;;;;;;5041470;28;20025;-72
2024/04/07 01:18:09;;;;;;;8.70;4.25;;;13.90;99.90;;;;;;5041718;28;20447;-72
2024/04/07 01:20:36;;;;;;;12.07;4.10;;;13.90;99.90;;;;;;5041215;28;20128;-72
2024/04/07 01:23:02;;;;;;;8.45;4.28;;;14.00;99.90;;;;;;5041286;28;20053;-72
2024/04/07 01:25:28;;;;;;;10.95;4.18;;;14.20;99.90;;;;;;5040457;28;20124;-72
2024/04/07 01:28:00;;;;;;;9.20;3.75;;;14.10;99.90;;;;;;5041117;28;20121;-72
2024/04/07 01:30:27;;;;;;;12.57;5.00;;;14.10;99.90;;;;;;5041140;28;20483;-72
2024/04/07 01:32:52;;;;;;;6.20;3.25;;;14.00;99.90;;;;;;5040485;28;20045;-72
2024/04/07 01:35:19;;;;;;;8.27;4.15;;;14.00;99.90;;;;;;5041067;28;20040;-72
2024/04/07 01:37:45;;;;;;;5.95;3.20;;;14.10;99.90;;;;;;5039942;28;20372;-72
2024/04/07 01:40:11;;;;;;;9.95;3.38;;;13.70;99.90;;;;;;5041120;28;20682;-72
2024/04/07 01:42:38;;;;;;;10.05;4.28;;;13.50;99.90;;;;;;5041137;28;20039;-72
2024/04/07 01:45:05;;;;;;;6.80;3.42;;;13.40;99.90;;;;;;5041028;28;20033;-72
2024/04/07 01:47:30;;;;;;;8.68;4.03;;;13.60;99.90;;;;;;5040698;28;20044;-72
2024/04/07 01:49:56;;;;;;;6.03;3.33;;;13.70;99.90;;;;;;5040889;28;20036;-72
2024/04/07 01:52:22;;;;;;;6.72;3.75;;;13.70;99.90;;;;;;5041230;28;20040;-72
2024/04/07 01:54:48;;;;;;;7.47;3.72;;;13.70;99.90;;;;;;5040603;28;20399;-72
2024/04/07 01:57:13;;;;;;;8.48;3.72;;;13.60;99.90;;;;;;5040923;28;20161;-72
2024/04/07 01:59:39;;;;;;;9.77;3.80;;;13.70;99.90;;;;;;5040548;28;20391;-72
2024/04/07 02:02:05;;;;;;;9.88;3.95;;;13.50;99.90;;;;;;5040447;28;20479;-72
2024/04/07 02:04:30;;;;;;;9.88;4.38;;;13.40;99.90;;;;;;5040740;28;20032;-72
2024/04/07 02:06:56;;;;;;;13.20;4.57;;;13.40;99.90;;;;;;5040540;28;20033;-72
2024/04/07 02:09:22;;;;;;;10.77;4.22;;;13.40;99.90;;;;;;5040753;28;20040;-72
2024/04/07 02:11:48;;;;;;;9.10;4.13;;;13.30;99.90;;;;;;5040114;28;20044;-72
2024/04/07 02:14:14;;;;;;;8.27;4.55;;;13.40;99.90;;;;;;5039937;28;20045;-72
2024/04/07 02:16:39;;;;;;;7.88;3.88;;;13.40;99.90;;;;;;5040171;28;21415;-72
2024/04/07 02:19:06;;;;;;;10.77;4.18;;;13.40;99.90;;;;;;5039655;28;20124;-72
2024/04/07 02:21:33;;;;;;;16.45;5.75;;;13.50;99.90;;;;;;5040625;28;20513;-72
2024/04/07 02:23:59;;;;;;;11.02;3.85;;;13.60;99.90;;;;;;5039410;28;20637;-72
2024/04/07 02:26:26;;;;;;;7.47;3.65;;;13.60;99.90;;;;;;5040344;28;20029;-72
2024/04/07 02:28:52;;;;;;;10.75;4.78;;;13.50;99.90;;;;;;5040489;28;20036;-72
2024/04/07 02:31:18;;;;;;;7.70;3.25;;;13.50;99.90;;;;;;5039860;28;20028;-72
2024/04/07 02:33:46;;;;;;;6.22;3.78;;;13.50;99.90;;;;;;5040167;28;20075;-72
2024/04/07 02:36:14;;;;;;;8.23;3.60;;;13.50;99.90;;;;;;5040318;28;20033;-72
2024/04/07 02:38:40;;;;;;;9.48;4.20;;;13.40;99.90;;;;;;5044437;28;20915;-72
2024/04/07 02:41:05;;;;;;;9.35;4.05;;;13.40;99.90;;;;;;5043877;28;20045;-72
2024/04/07 02:43:32;;;;;;;6.90;3.15;;;13.40;99.90;;;;;;5044019;28;20035;-72
2024/04/07 02:48:42;;;;;;;7.38;3.47;;;13.40;99.90;;;;;;5044828;28;20394;-72
2024/04/07 02:51:09;;;;;;;7.32;3.25;;;13.60;99.90;;;;;;5044064;28;20043;-72
2024/04/07 02:53:34;;;;;;;6.38;4.15;;;13.70;99.90;;;;;;5043820;28;20041;-72
2024/04/07 02:56:00;;;;;;;12.25;5.10;;;13.70;99.90;;;;;;5044025;28;20037;-72
2024/04/07 02:58:26;;;;;;;6.57;3.42;;;13.70;99.90;;;;;;5043620;28;20028;-72
2024/04/07 03:00:51;;;;;;;6.88;3.00;;;13.90;99.90;;;;;;5042455;28;20412;-72
2024/04/07 03:03:17;;;;;;;6.43;3.38;;;13.90;99.90;;;;;;5041561;28;20031;-72
2024/04/07 03:05:43;;;;;;;9.98;4.05;;;13.90;99.90;;;;;;5038783;28;20103;-72
2024/04/07 03:08:08;;;;;;;7.05;3.45;;;14.10;99.90;;;;;;5038817;28;20088;-72
2024/04/07 03:10:34;;;;;;;8.80;3.60;;;14.00;99.90;;;;;;5039332;28;20060;-72
2024/04/07 03:13:00;;;;;;;9.13;3.50;;;14.10;99.90;;;;;;5037209;28;20079;-72
2024/04/07 03:15:26;;;;;;;6.55;3.60;;;14.00;99.90;;;;;;5038824;28;20600;-72
2024/04/07 03:17:52;;;;;;;9.25;3.80;;;14.20;99.90;;;;;;5036984;28;20492;-73
2024/04/07 03:20:18;;;;;;;16.33;4.20;;;14.20;99.90;;;;;;5036623;28;20024;-72
2024/04/07 03:22:44;;;;;;;8.93;3.55;;;14.20;99.90;;;;;;5037014;28;20060;-72
2024/04/07 03:25:09;;;;;;;9.45;3.28;;;14.10;99.90;;;;;;5037014;28;20033;-73
2024/04/07 03:27:35;;;;;;;6.88;3.13;;;14.10;99.90;;;;;;5036086;28;20488;-72
2024/04/07 03:30:01;;;;;;;10.38;3.78;;;14.20;99.90;;;;;;5037646;28;20448;-73
2024/04/07 03:32:27;;;;;;;6.38;2.70;;;14.20;99.90;;;;;;5039440;28;20707;-73
2024/04/07 03:34:52;;;;;;;6.32;3.15;;;14.00;99.90;;;;;;5039095;28;20039;-72
2024/04/07 03:37:18;;;;;;;4.97;2.80;;;13.90;99.90;;;;;;5038974;28;20039;-72
2024/04/07 03:39:43;;;;;;;7.53;2.88;;;13.80;99.90;;;;;;5039445;28;20048;-72
2024/04/07 03:42:09;;;;;;;13.27;3.38;;;13.80;99.90;;;;;;5036983;28;20028;-73
2024/04/07 03:44:35;;;;;;;11.48;2.92;;;13.70;99.90;;;;;;5036283;28;20379;-72
2024/04/07 03:47:01;;;;;;;5.40;2.92;;;13.90;99.90;;;;;;5036112;28;20127;-72
2024/04/07 03:49:27;;;;;;;5.35;2.90;;;13.80;99.90;;;;;;5035023;28;20635;-73
2024/04/07 03:51:52;;;;;;;5.47;2.53;;;13.80;99.90;;;;;;5035934;28;20033;-73
2024/04/07 03:54:19;;;;;;;6.47;2.75;;;13.80;99.90;;;;;;5035531;28;20043;-72
2024/04/07 03:56:45;;;;;;;9.93;3.13;;;13.60;99.90;;;;;;5035733;28;20052;-72
2024/04/07 03:59:11;;;;;;;9.02;3.47;;;13.60;99.90;;;;;;5035459;28;20229;-73
2024/04/07 04:01:39;;;;;;;6.45;3.05;;;13.40;99.90;;;;;;5034498;28;20486;-73
2024/04/07 04:04:06;;;;;;;5.10;3.05;;;13.40;99.90;;;;;;5035475;28;20067;-72
2024/04/07 04:06:31;;;;;;;7.43;3.30;;;13.30;99.90;;;;;;5033906;28;20659;-72
2024/04/07 04:08:57;;;;;;;5.88;3.25;;;13.50;99.90;;;;;;5035110;28;20090;-72
2024/04/07 04:11:23;;;;;;;7.97;2.92;;;13.50;99.90;;;;;;5035022;28;20037;-73
2024/04/07 04:13:50;;;;;;;7.70;2.72;;;13.30;99.90;;;;;;5035416;28;20025;-72
2024/04/07 04:16:19;;;;;;;13.15;3.92;;;13.10;99.90;;;;;;5035123;28;20025;-72
2024/04/07 04:18:44;;;;;;;4.30;2.42;;;13.10;99.90;;;;;;5035212;28;20183;-73
2024/04/07 04:21:11;;;;;;;6.63;2.63;;;13.10;99.90;;;;;;5034946;28;20029;-72
2024/04/07 04:23:38;;;;;;;7.05;2.83;;;13.10;99.90;;;;;;5034784;28;20044;-72
2024/04/07 04:26:05;;;;;;;5.13;2.58;;;13.10;99.90;;;;;;5035204;28;20032;-73
2024/04/07 04:28:31;;;;;;;8.13;3.03;;;13.00;99.90;;;;;;5035045;28;20051;-73
2024/04/07 04:31:00;;;;;;;6.80;2.80;;;12.90;99.90;;;;;;5034963;28;20503;-72
2024/04/07 04:33:29;;;;;;;6.68;2.97;;;12.80;99.90;;;;;;5034608;28;20053;-72
2024/04/07 04:35:54;;;;;;;10.80;2.80;;;13.00;99.90;;;;;;5034935;28;20222;-73
2024/04/07 04:38:21;;;;;;;8.00;2.83;;;13.10;99.90;;;;;;5035247;28;20033;-72
2024/04/07 04:40:57;;;;;;;6.43;2.88;;;13.00;99.90;;;;;;5035047;28;20049;-72
2024/04/07 04:43:23;;;;;;;8.85;3.13;;;12.90;99.90;;;;;;5035144;28;20036;-72
2024/04/07 04:46:13;;;;;;;5.03;2.47;;;13.00;99.90;;;;;;5034717;28;20123;-72
2024/04/07 04:48:39;;;;;;;6.70;2.85;;;12.90;99.90;;;;;;5034675;28;20041;-72
2024/04/07 04:51:05;;;;;;;8.05;3.03;;;13.00;99.90;;;;;;5034270;28;20041;-72
2024/04/07 04:53:31;;;;;;;5.80;2.85;;;13.00;99.90;;;;;;5034544;28;20041;-73
2024/04/07 04:56:03;;;;;;;7.35;3.05;;;13.30;99.90;;;;;;5035038;28;20048;-73
2024/04/07 04:58:30;;;;;;;5.95;3.20;;;13.30;99.90;;;;;;5034610;28;20037;-72
2024/04/07 05:00:58;;;;;;;5.05;2.83;;;13.20;99.90;;;;;;5036151;28;20037;-72
2024/04/07 05:03:28;;;;;;;6.13;2.55;;;13.30;99.90;;;;;;5037426;28;20086;-72
2024/04/07 05:05:53;;;;;;;6.72;2.58;;;13.40;99.90;;;;;;5037459;28;20044;-72
2024/04/07 05:08:19;;;;;;;5.45;2.42;;;13.30;99.90;;;;;;5037511;28;20028;-72
2024/04/07 05:10:45;;;;;;;6.18;2.42;;;13.30;99.90;;;;;;5037258;28;20029;-72
2024/04/07 05:13:10;;;;;;;5.30;2.30;;;13.50;99.90;;;;;;5037310;28;20041;-72
2024/04/07 05:15:36;;;;;;;9.60;3.30;;;13.60;99.90;;;;;;5037374;28;20577;-72
2024/04/07 05:18:02;;;;;;;4.97;2.47;;;13.60;99.90;;;;;;5037135;28;20035;-72
2024/04/07 05:20:28;;;;;;;6.82;2.97;;;13.60;99.90;;;;;;5036703;28;20159;-73
2024/04/07 05:22:54;;;;;;;7.22;3.60;;;13.70;99.90;;;;;;5037331;28;20025;-72
2024/04/07 05:25:20;;;;;;;4.28;1.80;;;13.80;99.90;;;;;;5037411;28;20036;-72
2024/04/07 05:27:46;;;;;;;6.90;2.40;;;13.80;99.90;;;;;;5036035;28;20851;-72
2024/04/07 05:30:11;;;;;;;7.03;2.50;;;13.70;99.90;;;;;;5034556;28;20037;-72
2024/04/07 05:32:37;;;;;;;9.27;2.20;;;13.70;99.90;;;;;;5034153;28;20497;-72
2024/04/07 05:35:04;;;;;;;4.35;2.60;;;13.70;99.90;;;;;;5034103;28;20137;-72
2024/04/07 05:37:31;;;;;;;4.63;2.80;;;13.80;99.90;;;;;;5034498;28;20368;-73
2024/04/07 05:39:56;;;;;;;4.82;1.90;;;13.80;99.90;;;;;;5034442;28;20136;-73
2024/04/07 05:42:26;;;;;;;5.45;2.15;;;13.90;99.90;;;;;;5034076;28;20040;-72
2024/04/07 05:44:52;;;;;;;5.30;2.40;;;13.90;99.90;;;;;;5033870;28;20040;-72
2024/04/07 05:47:18;;;;;;;4.72;1.88;;;13.90;99.90;;;;;;5033937;28;20029;-73
2024/04/07 05:49:44;;;;;;;4.38;2.75;;;13.80;99.90;;;;;;5035062;28;20059;-73
2024/04/07 05:52:10;;;;;;;9.18;2.80;;;13.60;99.90;;;;;;5037454;28;20064;-72
2024/04/07 05:54:35;;;;;;;6.85;2.40;;;13.60;99.90;;;;;;5037098;28;20075;-72
2024/04/07 05:57:01;;;;;;;4.63;2.35;;;13.80;99.90;;;;;;5037297;28;20368;-73
2024/04/07 05:59:26;;;;;;;7.43;2.90;;;13.90;99.90;;;;;;5036920;28;20694;-72
2024/04/07 06:01:53;;;;;;;7.05;2.28;;;13.70;99.90;;;;;;5036826;28;20454;-72
2024/04/07 06:04:19;;;;;;;8.18;2.97;;;13.50;99.90;;;;;;5036254;28;20044;-73
2024/04/07 06:06:45;;;;;;;5.57;2.92;;;13.40;99.90;;;;;;5036584;28;20082;-72
2024/04/07 06:09:10;;;;;;;5.72;2.75;;;13.50;99.90;;;;;;5036639;28;20040;-72
2024/04/07 06:11:37;;;;;;;5.93;2.78;;;13.70;99.90;;;;;;5037427;28;20705;-72
2024/04/07 06:14:03;;;;;;;4.90;2.13;;;13.90;99.90;;;;;;5040533;28;20029;-72
2024/04/07 06:16:29;;;;;;;6.90;2.45;;;13.90;99.90;;;;;;5040594;28;20037;-73
2024/04/07 06:18:55;;;;;;;4.93;2.28;;;14.10;99.90;;;;;;5040927;28;20063;-72
2024/04/07 06:21:21;;;;;;;3.67;1.65;;;14.20;99.90;;;;;;5039948;28;20044;-72
2024/04/07 06:23:48;;;;;;;4.53;2.20;;;14.20;99.90;;;;;;5039437;28;20709;-72
2024/04/07 06:26:14;;;;;;;4.53;2.28;;;14.20;99.90;;;;;;5040646;28;20083;-73
2024/04/07 06:28:40;;;;;;;6.15;2.55;;;14.10;99.90;;;;;;5040777;28;20027;-72
2024/04/07 06:31:05;;;;;;;5.85;2.40;;;13.90;99.90;;;;;;5040714;28;20021;-73
2024/04/07 06:33:31;;;;;;;6.97;2.28;;;13.90;99.90;;;;;;5040931;28;20063;-72
2024/04/07 06:35:57;;;;;;;5.28;2.75;;;13.90;99.90;;;;;;5040793;28;20735;-72
2024/04/07 06:38:23;;;;;;;5.55;2.22;;;14.10;99.90;;;;;;5040834;28;20028;-72
2024/04/07 06:40:48;;;;;;;5.93;2.45;;;14.30;99.90;;;;;;5038350;28;20064;-73
2024/04/07 06:43:14;;;;;;;5.65;2.67;;;14.40;99.90;;;;;;5037332;28;20031;-73
2024/04/07 06:45:40;;;;;;;5.45;2.40;;;14.20;99.90;;;;;;5038019;28;20025;-73
2024/04/07 06:48:06;;;;;;;10.45;2.70;;;14.20;99.90;;;;;;5037905;28;21388;-72
2024/04/07 06:50:32;;;;;;;7.38;2.58;;;14.40;99.90;;;;;;5037625;28;20644;-72
2024/04/07 06:52:58;;;;;;;5.10;1.95;;;14.60;99.90;;;;;;5036658;28;20043;-72
2024/04/07 06:55:24;;;;;;;4.85;2.10;;;15.20;99.90;;;;;;5037007;28;20036;-73
2024/04/07 06:57:49;;;;;;;5.35;2.30;;;15.60;99.90;;;;;;5036878;28;20086;-72
2024/04/07 07:00:15;;;;;;;6.25;2.67;;;15.40;99.90;;;;;;5039728;28;20736;-72
2024/04/07 07:02:41;;;;;;;4.13;2.17;;;15.60;99.90;;;;;;5040130;28;20043;-72
2024/04/07 07:05:08;;;;;;;5.05;2.85;;;15.70;99.90;;;;;;5040087;28;20025;-72
2024/04/07 07:07:34;;;;;;;7.45;2.60;;;15.60;99.90;;;;;;5039812;28;20580;-73
2024/04/07 07:09:59;;;;;;;5.13;2.47;;;15.40;99.90;;;;;;5040101;28;20091;-73
2024/04/07 07:12:25;;;;;;;7.28;1.95;;;15.50;99.90;;;;;;5039901;28;20040;-73
2024/04/07 07:14:52;;;;;;;6.05;2.17;;;15.50;99.90;;;;;;5039988;28;20636;-73
2024/04/07 07:17:17;;;;;;;3.55;1.92;;;15.80;99.90;;;;;;5039691;28;20095;-73
2024/04/07 07:19:43;;;;;;;6.28;1.50;;;16.10;99.90;;;;;;5038325;28;20029;-72
2024/04/07 07:22:09;;;;;;;5.00;1.55;;;16.10;99.90;;;;;;5036663;28;20507;-73
2024/04/07 07:24:34;;;;;;;5.28;2.17;;;16.10;99.90;;;;;;5037396;28;20037;-72
2024/04/07 07:27:00;;;;;;;3.97;2.05;;;16.00;99.90;;;;;;5036516;28;20494;-72
2024/04/07 07:29:26;;;;;;;4.30;2.30;;;15.80;99.90;;;;;;5036189;28;20038;-72
2024/04/07 07:31:56;;;;;;;4.40;2.38;;;15.50;99.90;;;;;;5036398;28;20040;-72
2024/04/07 07:34:25;;;;;;;4.43;2.17;;;15.50;99.90;;;;;;5036007;28;20037;-73
2024/04/07 07:36:51;;;;;;;6.53;2.60;;;15.60;99.90;;;;;;5036776;28;20035;-73
2024/04/07 07:39:17;;;;;;;5.00;1.98;;;15.50;99.90;;;;;;5036589;28;20044;-73
2024/04/07 07:41:44;;;;;;;4.25;2.35;;;15.60;99.90;;;;;;5036630;28;20785;-72
2024/04/07 07:44:10;;;;;;;5.68;2.15;;;15.60;99.90;;;;;;5035957;28;20029;-72
2024/04/07 07:46:36;;;;;;;6.15;2.13;;;15.70;99.90;;;;;;5035995;28;20035;-72
2024/04/07 07:49:02;;;;;;;5.47;2.22;;;15.80;99.90;;;;;;5036016;28;20033;-73
2024/04/07 07:51:28;;;;;;;5.57;2.00;;;16.00;99.90;;;;;;5035978;28;20037;-73
2024/04/07 07:53:55;;;;;;;4.10;2.15;;;16.20;99.90;;;;;;5035856;28;20037;-72
2024/04/07 07:56:21;;;;;;;5.93;2.45;;;16.20;99.90;;;;;;5038540;28;20025;-72
2024/04/07 07:58:46;;;;;;;5.60;2.63;;;15.90;99.90;;;;;;5038123;28;20048;-73
2024/04/07 08:01:12;;;;;;;10.73;2.75;;;15.80;99.90;;;;;;5038407;28;20536;-73
2024/04/07 08:03:38;;;;;;;6.25;2.42;;;15.90;99.90;;;;;;5038012;28;20116;-72
2024/04/07 08:06:04;;;;;;;5.65;2.63;;;15.80;99.90;;;;;;5038121;28;20112;-72
2024/04/07 08:08:30;;;;;;;4.63;2.00;;;15.90;99.90;;;;;;5038453;28;20112;-72
2024/04/07 08:10:57;;;;;;;4.30;2.17;;;15.80;99.90;;;;;;5038832;28;20029;-72
2024/04/07 08:13:23;;;;;;;4.75;2.20;;;15.90;99.90;;;;;;5038268;28;20099;-72
2024/04/07 08:15:49;;;;;;;4.72;2.45;;;15.90;99.90;;;;;;5038559;28;20033;-72
2024/04/07 08:18:15;;;;;;;4.03;2.17;;;15.90;99.90;;;;;;5038942;28;20028;-72
2024/04/07 08:20:42;;;;;;;3.90;2.30;;;15.90;99.90;;;;;;5038409;28;20219;-72
2024/04/07 08:23:09;;;;;;;4.55;2.17;;;15.80;99.90;;;;;;5038521;28;20582;-73
2024/04/07 08:25:35;;;;;;;5.50;2.25;;;15.70;99.90;;;;;;5035844;28;20422;-72
2024/04/07 08:28:02;;;;;;;3.13;1.92;;;15.70;99.90;;;;;;5035373;28;20040;-73
2024/04/07 08:30:27;;;;;;;3.45;1.90;;;15.70;99.90;;;;;;5035867;28;20025;-72
2024/04/07 08:32:55;;;;;;;8.82;2.00;;;15.70;99.90;;;;;;5034653;28;20146;-73
2024/04/07 08:35:21;;;;;;;4.78;1.52;;;15.80;99.90;;;;;;5035207;28;21172;-72
2024/04/07 08:37:46;;;;;;;11.80;2.53;;;16.00;99.90;;;;;;5035299;28;20052;-72
2024/04/07 08:40:12;;;;;;;4.63;2.15;;;16.00;99.90;;;;;;5035273;28;20113;-72
2024/04/07 08:42:40;;;;;;;7.50;2.28;;;16.10;99.90;;;;;;5036083;28;20120;-72
2024/04/07 08:45:07;;;;;;;5.03;1.92;;;16.20;99.90;;;;;;5038350;28;20063;-73
2024/04/07 08:47:36;;;;;;;4.55;1.80;;;16.20;99.90;;;;;;5038194;28;20056;-72
2024/04/07 08:50:02;;;;;;;5.05;1.75;;;16.30;99.90;;;;;;5038062;28;20455;-72
2024/04/07 08:52:30;;;;;;;6.88;2.42;;;16.30;99.90;;;;;;5037435;28;20048;-72
2024/04/07 08:54:57;;;;;;;4.57;2.13;;;16.30;99.90;;;;;;5037755;28;20450;-72
2024/04/07 08:57:23;;;;;;;4.55;1.52;;;17.90;99.90;;;;;;5038330;28;20031;-72
2024/04/07 08:59:51;;;;;;;3.72;1.77;;;20.00;99.70;;;;;;5037772;28;20075;-73
2024/04/07 09:02:18;;;;;;;3.42;1.58;;;21.20;98.30;;;;;;5037410;28;20025;-72
2024/04/07 09:04:44;;;;;;;3.28;1.30;;;21.90;96.60;;;;;;5037793;28;20044;-72
2024/04/07 09:07:10;;;;;;;5.18;2.35;;;20.80;96.90;;;;;;5037426;28;20037;-72
2024/04/07 09:09:37;;;;;;;2.85;1.75;;;20.90;98.10;;;;;;5034818;28;21444;-72
2024/04/07 09:12:04;;;;;;;8.30;2.35;;;21.60;97.70;;;;;;5034269;28;20490;-72
2024/04/07 09:14:33;;;;;;;3.03;1.55;;;22.50;97.00;;;;;;5034848;28;20060;-72
2024/04/07 09:17:08;;;;;;;3.08;1.75;;;23.10;96.60;;;;;;5034946;28;20056;-73
2024/04/07 09:19:34;;;;;;;4.40;2.10;;;22.50;95.30;;;;;;5034345;28;20382;-73
2024/04/07 09:22:01;;;;;;;4.28;1.85;;;22.00;95.40;;;;;;5033861;28;20025;-72
2024/04/07 09:24:30;;;;;;;4.15;1.73;;;22.20;96.20;;;;;;5034003;28;20025;-73
2024/04/07 09:27:00;;;;;;;3.40;1.90;;;22.60;95.50;;;;;;5035450;28;20111;-73
2024/04/07 09:29:38;;;;;;;6.00;2.00;;;23.10;94.20;;;;;;5037129;28;20033;-72
2024/04/07 09:32:04;;;;;;;3.33;1.85;;;23.40;94.40;;;;;;5036502;28;21721;-72
2024/04/07 09:34:32;;;;;;;3.58;2.05;;;22.90;95.20;;;;;;5037172;28;20037;-72
2024/04/07 09:36:59;;;;;;;3.30;1.70;;;21.50;95.80;;;;;;5037429;28;20668;-72
2024/04/07 09:39:26;;;;;;;5.93;2.20;;;21.00;96.60;;;;;;5037236;28;20628;-72
2024/04/07 09:41:54;;;;;;;3.03;1.83;;;19.90;97.30;;;;;;5036853;28;20067;-72
2024/04/07 09:44:20;;;;;;;3.15;1.80;;;19.40;97.50;;;;;;5036240;28;20071;-73
2024/04/07 09:46:46;;;;;;;6.18;1.80;;;19.10;97.40;;;;;;5035989;28;20123;-72
2024/04/07 09:49:13;;;;;;;4.88;1.83;;;19.00;97.70;;;;;;5037526;28;20529;-73
2024/04/07 09:51:42;;;;;;;3.70;1.90;;;18.90;98.00;;;;;;5036771;28;20033;-72
2024/04/07 09:54:28;;;;;;;5.20;2.08;;;18.90;98.10;;;;;;5036279;28;20167;-73
2024/04/07 09:56:55;;;;;;;3.63;1.67;;;19.10;98.50;;;;;;5037083;28;20029;-73
2024/04/07 09:59:21;;;;;;;6.75;3.03;;;19.40;98.90;;;;;;5036992;28;20036;-73
2024/04/07 10:01:48;;;;;;;3.75;1.90;;;19.40;98.20;;;;;;5036866;28;20041;-72
2024/04/07 10:04:15;;;;;;;3.55;1.88;;;19.30;97.80;;;;;;5036670;28;20072;-72
2024/04/07 10:06:41;;;;;;;6.20;2.10;;;19.40;99.20;;;;;;5036633;28;20036;-72
2024/04/07 10:09:09;;;;;;;6.40;2.25;;;19.70;98.40;;;;;;5037197;28;20033;-73
2024/04/07 10:11:35;;;;;;;4.13;2.17;;;19.60;97.90;;;;;;5036564;28;20079;-73
2024/04/07 10:14:01;;;;;;;3.20;1.65;;;19.60;97.90;;;;;;5036732;28;20499;-72
2024/04/07 10:16:27;;;;;;;4.63;2.10;;;19.70;98.30;;;;;;5035394;28;20021;-72
2024/04/07 10:18:53;;;;;;;4.20;1.70;;;19.90;97.90;;;;;;5036465;28;20531;-72
2024/04/07 10:21:19;;;;;;;4.03;1.95;;;19.90;98.30;;;;;;5036304;28;20024;-72
2024/04/07 10:23:46;;;;;;;6.03;2.28;;;20.10;97.70;;;;;;5036284;28;21275;-72
2024/04/07 10:26:15;;;;;;;6.07;1.95;;;19.70;96.70;;;;;;5036657;28;20662;-72
2024/04/07 10:28:58;;;;;;;3.55;1.85;;;19.80;97.10;;;;;;5037028;28;20044;-72
2024/04/07 10:31:25;;;;;;;4.07;2.00;;;20.00;97.20;;;;;;5036529;28;20095;-72
2024/04/07 10:33:51;;;;;;;4.35;1.73;;;20.10;96.40;;;;;;5035013;28;20521;-72
2024/04/07 10:36:20;;;;;;;8.43;1.60;;;20.50;96.70;;;;;;5036363;28;20384;-73
2024/04/07 10:38:57;;;;;;;3.35;1.30;;;20.60;96.30;;;;;;5035986;28;20026;-73
2024/04/07 10:41:25;;;;;;;5.05;1.45;;;20.90;96.60;;;;;;5035782;28;20053;-73
2024/04/07 10:43:51;;;;;;;4.63;1.90;;;21.00;95.80;;;;;;5035863;28;20037;-72
2024/04/07 10:46:18;;;;;;;4.82;2.20;;;21.10;95.70;;;;;;5036248;28;20046;-73
2024/04/07 10:48:44;;;;;;;4.30;1.50;;;21.00;96.10;;;;;;5036359;28;20021;-72
2024/04/07 10:51:12;;;;;;;3.47;1.60;;;21.20;96.30;;;;;;5033885;28;20055;-73
2024/04/07 10:53:40;;;;;;;4.82;1.75;;;21.30;96.00;;;;;;5035575;28;20533;-73
2024/04/07 10:56:06;;;;;;;4.40;1.95;;;21.30;96.20;;;;;;5036451;28;20701;-73
2024/04/07 10:58:33;;;;;;;5.22;1.85;;;21.30;95.50;;;;;;5037932;28;20033;-73
2024/04/07 11:00:59;;;;;;;4.55;2.10;;;21.30;95.80;;;;;;5039788;28;20095;-73
2024/04/07 11:03:25;;;;;;;3.25;1.70;;;21.30;95.90;;;;;;5039643;28;20033;-73
2024/04/07 11:05:51;;;;;;;3.53;1.65;;;21.30;95.90;;;;;;5039774;28;20036;-73
2024/04/07 11:08:18;;;;;;;3.95;2.05;;;21.30;96.20;;;;;;5039973;28;20025;-73
2024/04/07 11:10:51;;;;;;;4.10;1.70;;;21.30;95.30;;;;;;5039507;28;20067;-73
2024/04/07 11:13:18;;;;;;;9.20;1.70;;;21.30;95.30;;;;;;5039337;28;20041;-73
2024/04/07 11:15:51;;;;;;;3.03;1.27;;;21.50;95.60;;;;;;5038242;28;20121;-73
2024/04/07 11:18:18;;;;;;;4.68;2.00;;;21.50;94.90;;;;;;5039279;28;20147;-73
2024/04/07 11:20:44;;;;;;;3.80;1.65;;;21.20;94.70;;;;;;5040006;28;20025;-73
2024/04/07 11:23:11;;;;;;;3.47;1.67;;;21.40;95.60;;;;;;5039612;28;20612;-73
2024/04/07 11:25:39;;;;;;;2.50;1.45;;;21.80;95.50;;;;;;5039268;28;20064;-73
2024/04/07 11:28:07;;;;;;;3.30;1.73;;;21.80;94.90;;;;;;5039455;28;20033;-73
2024/04/07 11:30:44;;;;;;;3.30;1.70;;;21.90;95.30;;;;;;5039607;28;20124;-73
2024/04/07 11:33:11;;;;;;;2.85;1.35;;;22.10;95.30;;;;;;5039515;28;20478;-73
2024/04/07 11:35:40;;;;;;;4.53;1.52;;;22.30;95.10;;;;;;5039199;28;20036;-73
2024/04/07 11:38:06;;;;;;;3.92;1.83;;;22.40;94.70;;;;;;5039400;28;20035;-73
2024/04/07 11:40:32;;;;;;;3.90;1.65;;;22.40;94.30;;;;;;5038911;28;20098;-73
2024/04/07 11:42:59;;;;;;;5.43;1.52;;;22.40;94.40;;;;;;5039160;28;20035;-73
2024/04/07 11:45:25;;;;;;;10.20;1.90;;;22.40;94.30;;;;;;5038902;28;20054;-73
2024/04/07 11:47:54;;;;;;;3.67;1.25;;;22.60;94.10;;;;;;5039532;28;20028;-73
2024/04/07 11:50:21;;;;;;;3.30;1.60;;;22.60;92.90;;;;;;5038897;28;20116;-73
2024/04/07 11:52:47;;;;;;;8.20;2.17;;;22.70;93.60;;;;;;5038722;28;20517;-72
2024/04/07 11:55:14;;;;;;;2.40;1.25;;;23.00;93.80;;;;;;5038956;28;20033;-72
2024/04/07 11:57:39;;;;;;;4.60;2.05;;;23.10;93.50;;;;;;5039365;28;20025;-72
2024/04/07 12:00:09;;;;;;;2.53;1.30;;;23.10;93.20;;;;;;5038721;28;20494;-73
2024/04/07 12:02:35;;;;;;;4.00;1.98;;;23.30;93.70;;;;;;5038268;28;20021;-72
2024/04/07 12:05:04;;;;;;;2.40;1.25;;;23.30;93.10;;;;;;5038673;28;20110;-72
2024/04/07 12:07:30;;;;;;;3.95;1.25;;;23.30;92.60;;;;;;5038700;28;20032;-73
2024/04/07 12:09:56;;;;;;;3.60;1.50;;;23.40;92.80;;;;;;5037562;28;21772;-73
2024/04/07 12:12:22;;;;;;;2.25;1.25;;;23.40;92.80;;;;;;5038481;28;20037;-73
2024/04/07 12:14:48;;;;;;;2.53;1.25;;;23.50;93.10;;;;;;5038339;28;20041;-72
2024/04/07 12:17:14;;;;;;;2.65;1.33;;;23.70;92.50;;;;;;5039196;28;20044;-73
2024/04/07 12:19:40;;;;;;;4.35;1.30;;;23.80;93.20;;;;;;5038193;28;20033;-73
2024/04/07 12:22:15;;;;;;;4.05;1.67;;;23.80;91.40;;;;;;5038196;28;20041;-73
2024/04/07 12:24:41;;;;;;;3.47;1.27;;;23.70;91.80;;;;;;5038229;28;20478;-73
2024/04/07 12:27:07;;;;;;;2.22;1.10;;;24.10;93.60;;;;;;5038585;28;20032;-73
2024/04/07 12:29:32;;;;;;;4.18;1.17;;;24.30;91.80;;;;;;5038205;28;20036;-73
2024/04/07 12:31:58;;;;;;;3.83;1.67;;;24.30;92.20;;;;;;5038229;28;20041;-73
2024/04/07 12:34:24;;;;;;;4.75;2.00;;;24.40;92.30;;;;;;5038538;28;20041;-73
2024/04/07 12:36:50;;;;;;;3.75;1.77;;;24.50;91.90;;;;;;5038186;28;20043;-73
2024/04/07 12:39:16;;;;;;;3.78;1.55;;;24.40;92.10;;;;;;5038431;28;20033;-73
2024/04/07 12:41:42;;;;;;;4.45;1.95;;;24.30;92.20;;;;;;5037428;28;20032;-73
2024/04/07 12:44:08;;;;;;;8.48;3.42;;;24.40;92.70;;;;;;5038406;28;20037;-73